METAR Data
IDs: Format: Raw Decoded Include TAF

Data at: 1140 UTC 28 Jul 2021

KTCY 281135Z AUTO 26006KT 10SM OVC029 26/09 A2996 RMK A01
KTCY 281115Z AUTO 26006KT 10SM BKN030 BKN040 OVC055 26/09 A2996 RMK A01
KTCY 281055Z AUTO 26005KT 10SM FEW035 BKN042 OVC055 26/09 A2996 RMK A01
KTCY 281035Z AUTO 26006KT 10SM FEW029 SCT037 BKN047 25/09 A2996 RMK A01
KTCY 281015Z AUTO 27005KT 10SM FEW040 BKN048 OVC075 25/09 A2997 RMK A01
KTCY 280955Z AUTO 27008KT 10SM FEW040 SCT047 OVC055 26/08 A2997 RMK A01
KTCY 280935Z AUTO 27005KT 10SM FEW039 SCT046 BKN050 25/08 A2997 RMK A01
KTCY 280915Z AUTO 27005KT 10SM SCT046 BKN050 OVC060 25/08 A2997 RMK A01
KTCY 280855Z AUTO 26006KT 10SM BKN050 OVC060 25/09 A2998 RMK A01
KTCY 280835Z AUTO 29005KT 10SM BKN055 BKN065 26/08 A2998 RMK A01
KTCY 280815Z AUTO 30005KT 10SM FEW049 BKN055 26/09 A2998 RMK A01
KTCY 280755Z AUTO 29006KT 10SM FEW050 OVC060 26/09 A2998 RMK A01
KTCY 280735Z AUTO 28006KT 10SM FEW050 BKN060 26/09 A2998 RMK A01
KTCY 280715Z AUTO 28006KT 10SM FEW048 SCT060 26/09 A2998 RMK A01
KTCY 280655Z AUTO 28006KT 10SM FEW055 SCT065 27/10 A2998 RMK A01
KTCY 280635Z AUTO 31007KT 10SM FEW070 28/10 A2998 RMK A01
KTCY 280615Z AUTO 30008KT 10SM FEW070 28/10 A2998 RMK A01
KTCY 280555Z AUTO 30008KT 10SM FEW070 28/10 A2997 RMK A01
KTCY 280535Z AUTO 31007KT 10SM CLR 28/11 A2997 RMK A01
KTCY 280515Z AUTO 30008KT 10SM CLR 28/11 A2997 RMK A01
KTCY 280455Z AUTO 29006KT 10SM FEW044 FEW055 28/10 A2996 RMK A01
KTCY 280435Z AUTO 30007KT 10SM CLR 28/10 A2995 RMK A01
KTCY 280415Z AUTO 29006KT 10SM CLR 29/09 A2994 RMK A01
KTCY 280355Z AUTO 31007KT 10SM CLR 30/09 A2993 RMK A01
KTCY 280335Z AUTO 31007KT 10SM CLR 30/10 A2993 RMK A01
KTCY 280315Z AUTO 32007KT 10SM CLR 31/10 A2992 RMK A01
KTCY 280255Z AUTO 32008KT 10SM CLR 31/11 A2992 RMK A01
KTCY 280235Z AUTO 33008KT 10SM CLR 32/10 A2991 RMK A01
KTCY 280215Z AUTO 32009KT 10SM CLR 33/10 A2991 RMK A01
KTCY 280155Z AUTO 32010KT 10SM CLR 33/09 A2991 RMK A01
KTCY 280135Z AUTO 34011KT 10SM CLR 33/09 A2991 RMK A01
KTCY 280115Z AUTO 32012KT 10SM CLR 33/10 A2991 RMK A01
KTCY 280055Z AUTO 34009G15KT 10SM CLR 34/11 A2991 RMK A01
KTCY 280035Z AUTO 34011KT 10SM CLR 34/10 A2991 RMK A01
KTCY 280015Z AUTO 34009KT 10SM CLR 34/11 A2992 RMK A01
KTCY 272355Z AUTO 33010G16KT 10SM CLR 34/11 A2992 RMK A01
KTCY 272335Z AUTO 34011KT 10SM CLR 34/10 A2993 RMK A01
KTCY 272315Z AUTO 01009G14KT 10SM CLR 34/06 A2993 RMK A01
KTCY 272255Z AUTO 36010KT 10SM CLR 34/06 A2993 RMK A01
KTCY 272235Z AUTO 35007KT 320V020 10SM CLR 34/07 A2994 RMK A01
KTCY 272215Z AUTO 34007G13KT 310V010 10SM CLR 34/07 A2995 RMK A01
KTCY 272155Z AUTO VRB05G14KT 10SM CLR 33/08 A2995 RMK A01
KTCY 272135Z AUTO VRB03G10KT 10SM CLR 33/07 A2996 RMK A01
KTCY 272115Z AUTO 35007KT 10SM CLR 33/06 A2996 RMK A01
KTCY 272055Z AUTO 32006G12KT 10SM CLR 32/04 A2997 RMK A01
KTCY 272035Z AUTO 33009KT 10SM CLR 32/05 A2997 RMK A01
KTCY 272015Z AUTO VRB06KT 10SM CLR 31/06 A2998 RMK A01
KTCY 271955Z AUTO 35006KT 10SM CLR 30/06 A2998 RMK A01
KTCY 271935Z AUTO 02007KT 10SM CLR 30/08 A2998 RMK A01
KTCY 271915Z AUTO 36006KT 10SM CLR 29/09 A2999 RMK A01
KTCY 271855Z AUTO 02006KT 10SM CLR 29/09 A2999 RMK A01
KTCY 271835Z AUTO VRB05KT 10SM CLR 28/09 A2999 RMK A01
KTCY 271815Z AUTO 34004KT 10SM CLR 28/10 A2999 RMK A01
KTCY 271755Z AUTO 33005KT 10SM CLR 27/12 A2999 RMK A01
KTCY 271735Z AUTO 31003KT 10SM CLR 26/12 A2999 RMK A01
KTCY 271715Z AUTO 34006KT 10SM CLR 25/12 A2999 RMK A01
KTCY 271655Z AUTO 34003KT 10SM CLR 23/13 A2999 RMK A01
KTCY 271635Z AUTO 36003KT 10SM CLR 22/13 A2999 RMK A01
KTCY 271615Z AUTO VRB04KT 10SM CLR 21/13 A2999 RMK A01
KTCY 271555Z AUTO 33005KT 10SM CLR 20/13 A2999 RMK A01
KTCY 271535Z AUTO 32005KT 10SM SCT110 20/14 A2998 RMK A01
KTCY 271515Z AUTO 33004KT 10SM SCT110 20/13 A2998 RMK A01
KTCY 271455Z AUTO 00000KT 10SM CLR 20/12 A2997 RMK A01
KTCY 271435Z AUTO 00000KT 10SM CLR 20/13 A2997 RMK A01
KTCY 271415Z AUTO 02004KT 10SM CLR 19/13 A2996 RMK A01
KTCY 271355Z AUTO 00000KT 10SM CLR 20/14 A2995 RMK A01
KTCY 271335Z AUTO 00000KT 10SM CLR 20/14 A2994 RMK A01
KTCY 271315Z AUTO 00000KT 10SM CLR 20/14 A2993 RMK A01
KTCY 271255Z AUTO 00000KT 10SM CLR 20/14 A2993 RMK A01
KTCY 271235Z AUTO 00000KT 10SM FEW039 SCT047 SCT065 20/14 A2993 RMK A01
KTCY 271215Z AUTO 00000KT 10SM FEW039 SCT046 SCT055 19/14 A2993 RMK A01
KTCY 271155Z AUTO 20004KT 10SM FEW041 SCT047 SCT055 19/14 A2993 RMK A01
KTCY 271135Z AUTO 00000KT 10SM SCT040 BKN046 BKN055 19/14 A2993 RMK A01
KTCY 271115Z AUTO 00000KT 10SM SCT043 BKN050 BKN060 19/14 A2993 RMK A01
KTCY 271055Z AUTO 00000KT 10SM FEW046 FEW060 FEW070 19/14 A2993 RMK A01
KTCY 271035Z AUTO 00000KT 10SM FEW050 BKN060 BKN075 19/14 A2993 RMK A01
KTCY 271015Z AUTO 00000KT 10SM SCT050 SCT060 19/14 A2993 RMK A01
KTCY 270955Z AUTO 00000KT 10SM SCT050 SCT060 19/14 A2993 RMK A01
KTCY 270935Z AUTO 11005KT 10SM FEW050 FEW065 19/14 A2993 RMK A01
KTCY 270915Z AUTO 00000KT 10SM FEW060 FEW120 19/14 A2992 RMK A01
KTCY 270855Z AUTO 07007KT 10SM FEW060 SCT120 19/14 A2991 RMK A01
KTCY 270835Z AUTO 02004KT 10SM CLR 19/14 A2989 RMK A01
KTCY 270815Z AUTO 32006KT 10SM CLR 19/14 A2988 RMK A01
KTCY 270755Z AUTO 31007KT 10SM CLR 19/14 A2989 RMK A01
KTCY 270735Z AUTO 32006KT 10SM FEW040 SCT045 SCT055 19/14 A2990 RMK A01
KTCY 270715Z AUTO 31006KT 10SM FEW029 FEW038 BKN046 20/13 A2991 RMK A01
KTCY 270655Z AUTO 31005KT 10SM SCT038 SCT047 BKN060 20/13 A2992 RMK A01
KTCY 270635Z AUTO 32005KT 10SM FEW029 SCT050 BKN120 20/13 A2993 RMK A01
KTCY 270615Z AUTO 35004KT 10SM FEW029 SCT035 BKN043 20/13 A2993 RMK A01
KTCY 270555Z AUTO 30006KT 10SM FEW033 BKN044 BKN055 21/12 A2993 RMK A01
KTCY 270535Z AUTO 33005KT 10SM FEW029 SCT041 SCT047 21/12 A2993 RMK A01
KTCY 270515Z AUTO 35005KT 10SM FEW031 FEW037 SCT050 22/12 A2992 RMK A01
KTCY 270455Z AUTO 33003KT 10SM SCT033 BKN042 BKN050 23/12 A2991 RMK A01
KTCY 270435Z AUTO 01005KT 10SM SCT036 SCT041 BKN050 23/12 A2990 RMK A01
KTCY 270415Z AUTO 04007KT 10SM SCT037 SCT043 SCT050 24/13 A2989 RMK A01
KTCY 270355Z AUTO 04006KT 10SM FEW043 25/13 A2988 RMK A01
KTCY 270335Z AUTO 00000KT 10SM CLR 26/13 A2987 RMK A01
KTCY 270315Z AUTO 06005KT 10SM CLR 27/12 A2987 RMK A01
KTCY 270255Z AUTO 00000KT 10SM CLR 27/12 A2986 RMK A01
KTCY 270235Z AUTO 03004KT 10SM CLR 28/12 A2985 RMK A01
KTCY 270215Z AUTO 04010KT 10SM CLR 29/12 A2985 RMK A01
KTCY 270155Z AUTO 36007KT 10SM CLR 30/12 A2984 RMK A01
KTCY 270135Z AUTO 34007G12KT 10SM CLR 31/12 A2984 RMK A01
KTCY 270115Z AUTO 36008KT 10SM CLR 31/12 A2984 RMK A01
KTCY 270055Z AUTO 35008KT 10SM CLR 31/12 A2984 RMK A01
KTCY 270035Z AUTO 02010KT 10SM CLR 32/11 A2984 RMK A01
KTCY 270015Z AUTO 03008KT 10SM CLR 32/11 A2985 RMK A01
KTCY 262355Z AUTO 03009KT 10SM CLR 32/11 A2984 RMK A01